sensor_id;sensor_type;location;lat;lon;timestamp;P1;durP1;ratioP1;P2;durP2;ratioP2
28170;SDS011;15458;53.346;-1.688;2023-10-13T00:00:25;19.85;;;11.57;;
28170;SDS011;15458;53.346;-1.688;2023-10-13T00:02:54;24.42;;;11.70;;
28170;SDS011;15458;53.346;-1.688;2023-10-13T00:05:29;25.40;;;11.07;;
28170;SDS011;15458;53.346;-1.688;2023-10-13T00:07:56;17.73;;;10.20;;
28170;SDS011;15458;53.346;-1.688;2023-10-13T00:10:26;17.58;;;10.00;;
28170;SDS011;15458;53.346;-1.688;2023-10-13T00:12:55;18.38;;;9.88;;
28170;SDS011;15458;53.346;-1.688;2023-10-13T00:15:32;18.88;;;9.80;;
28170;SDS011;15458;53.346;-1.688;2023-10-13T00:18:05;22.00;;;9.93;;
28170;SDS011;15458;53.346;-1.688;2023-10-13T00:20:43;20.50;;;9.23;;
28170;SDS011;15458;53.346;-1.688;2023-10-13T00:23:15;17.05;;;8.82;;
28170;SDS011;15458;53.346;-1.688;2023-10-13T00:25:49;17.75;;;9.50;;
28170;SDS011;15458;53.346;-1.688;2023-10-13T00:28:18;17.17;;;9.38;;
28170;SDS011;15458;53.346;-1.688;2023-10-13T00:30:48;18.17;;;8.80;;
28170;SDS011;15458;53.346;-1.688;2023-10-13T00:33:17;19.10;;;8.60;;
28170;SDS011;15458;53.346;-1.688;2023-10-13T00:35:49;16.08;;;8.63;;
28170;SDS011;15458;53.346;-1.688;2023-10-13T00:38:16;15.20;;;8.60;;
28170;SDS011;15458;53.346;-1.688;2023-10-13T00:40:43;15.05;;;8.23;;
28170;SDS011;15458;53.346;-1.688;2023-10-13T00:43:16;15.98;;;8.00;;
28170;SDS011;15458;53.346;-1.688;2023-10-13T00:45:50;13.93;;;7.70;;
28170;SDS011;15458;53.346;-1.688;2023-10-13T00:48:30;11.80;;;7.25;;
28170;SDS011;15458;53.346;-1.688;2023-10-13T00:51:04;12.07;;;7.38;;
28170;SDS011;15458;53.346;-1.688;2023-10-13T00:53:43;16.17;;;8.13;;
28170;SDS011;15458;53.346;-1.688;2023-10-13T00:56:10;11.98;;;7.10;;
28170;SDS011;15458;53.346;-1.688;2023-10-13T00:58:46;14.93;;;7.32;;
28170;SDS011;15458;53.346;-1.688;2023-10-13T01:01:12;13.10;;;7.28;;
28170;SDS011;15458;53.346;-1.688;2023-10-13T01:03:50;12.10;;;6.78;;
28170;SDS011;15458;53.346;-1.688;2023-10-13T01:06:28;14.77;;;6.85;;
28170;SDS011;15458;53.346;-1.688;2023-10-13T01:08:57;14.88;;;7.07;;
28170;SDS011;15458;53.346;-1.688;2023-10-13T01:11:40;13.55;;;6.97;;
28170;SDS011;15458;53.346;-1.688;2023-10-13T01:14:10;9.95;;;5.53;;
28170;SDS011;15458;53.346;-1.688;2023-10-13T01:16:37;8.50;;;5.35;;
28170;SDS011;15458;53.346;-1.688;2023-10-13T01:19:12;8.18;;;5.55;;
28170;SDS011;15458;53.346;-1.688;2023-10-13T01:21:49;10.43;;;5.93;;
28170;SDS011;15458;53.346;-1.688;2023-10-13T01:24:21;12.45;;;5.70;;
28170;SDS011;15458;53.346;-1.688;2023-10-13T01:26:49;11.35;;;5.80;;
28170;SDS011;15458;53.346;-1.688;2023-10-13T01:29:17;9.35;;;5.28;;
28170;SDS011;15458;53.346;-1.688;2023-10-13T01:31:44;9.60;;;4.95;;
28170;SDS011;15458;53.346;-1.688;2023-10-13T01:34:14;7.72;;;4.38;;
28170;SDS011;15458;53.346;-1.688;2023-10-13T01:36:50;8.27;;;4.57;;
28170;SDS011;15458;53.346;-1.688;2023-10-13T01:39:20;10.00;;;4.80;;
28170;SDS011;15458;53.346;-1.688;2023-10-13T01:41:51;5.00;;;3.45;;
28170;SDS011;15458;53.346;-1.688;2023-10-13T01:44:21;7.22;;;4.63;;
28170;SDS011;15458;53.346;-1.688;2023-10-13T01:46:51;7.93;;;4.18;;
28170;SDS011;15458;53.346;-1.688;2023-10-13T01:49:17;6.07;;;3.63;;
28170;SDS011;15458;53.346;-1.688;2023-10-13T01:51:42;6.38;;;3.70;;
28170;SDS011;15458;53.346;-1.688;2023-10-13T01:54:12;8.82;;;4.07;;
28170;SDS011;15458;53.346;-1.688;2023-10-13T01:56:38;9.80;;;5.35;;
28170;SDS011;15458;53.346;-1.688;2023-10-13T01:59:10;17.48;;;7.93;;
28170;SDS011;15458;53.346;-1.688;2023-10-13T02:01:37;14.63;;;6.70;;
28170;SDS011;15458;53.346;-1.688;2023-10-13T02:04:03;16.65;;;7.65;;
28170;SDS011;15458;53.346;-1.688;2023-10-13T02:06:30;16.23;;;7.55;;
28170;SDS011;15458;53.346;-1.688;2023-10-13T02:09:03;17.83;;;8.55;;
28170;SDS011;15458;53.346;-1.688;2023-10-13T02:11:41;13.80;;;7.65;;
28170;SDS011;15458;53.346;-1.688;2023-10-13T02:14:14;13.93;;;7.03;;
28170;SDS011;15458;53.346;-1.688;2023-10-13T02:16:43;17.00;;;8.52;;
28170;SDS011;15458;53.346;-1.688;2023-10-13T02:19:12;15.52;;;8.45;;
28170;SDS011;15458;53.346;-1.688;2023-10-13T02:21:40;15.15;;;8.45;;
28170;SDS011;15458;53.346;-1.688;2023-10-13T02:24:09;14.45;;;7.95;;
28170;SDS011;15458;53.346;-1.688;2023-10-13T02:26:46;13.40;;;7.72;;
28170;SDS011;15458;53.346;-1.688;2023-10-13T02:29:12;14.48;;;8.00;;
28170;SDS011;15458;53.346;-1.688;2023-10-13T02:31:39;18.42;;;8.82;;
28170;SDS011;15458;53.346;-1.688;2023-10-13T02:34:07;14.25;;;7.53;;
28170;SDS011;15458;53.346;-1.688;2023-10-13T02:36:37;17.45;;;7.68;;
28170;SDS011;15458;53.346;-1.688;2023-10-13T02:39:16;11.70;;;6.50;;
28170;SDS011;15458;53.346;-1.688;2023-10-13T02:41:50;8.48;;;4.45;;
28170;SDS011;15458;53.346;-1.688;2023-10-13T02:44:16;6.80;;;3.92;;
28170;SDS011;15458;53.346;-1.688;2023-10-13T02:46:51;5.85;;;3.33;;
28170;SDS011;15458;53.346;-1.688;2023-10-13T02:49:20;5.55;;;2.55;;
28170;SDS011;15458;53.346;-1.688;2023-10-13T02:51:47;4.35;;;2.80;;
28170;SDS011;15458;53.346;-1.688;2023-10-13T02:54:12;4.93;;;2.55;;
28170;SDS011;15458;53.346;-1.688;2023-10-13T02:56:43;4.82;;;2.45;;
28170;SDS011;15458;53.346;-1.688;2023-10-13T02:59:30;3.88;;;2.40;;
28170;SDS011;15458;53.346;-1.688;2023-10-13T03:02:06;10.05;;;5.63;;
28170;SDS011;15458;53.346;-1.688;2023-10-13T03:04:52;11.68;;;6.10;;
28170;SDS011;15458;53.346;-1.688;2023-10-13T03:07:24;14.27;;;7.60;;
28170;SDS011;15458;53.346;-1.688;2023-10-13T03:09:54;15.60;;;7.10;;
28170;SDS011;15458;53.346;-1.688;2023-10-13T03:12:35;18.98;;;6.55;;
28170;SDS011;15458;53.346;-1.688;2023-10-13T03:15:01;13.80;;;6.43;;
28170;SDS011;15458;53.346;-1.688;2023-10-13T03:17:50;11.85;;;6.28;;
28170;SDS011;15458;53.346;-1.688;2023-10-13T03:20:20;31.23;;;7.15;;
28170;SDS011;15458;53.346;-1.688;2023-10-13T03:22:58;12.10;;;6.70;;
28170;SDS011;15458;53.346;-1.688;2023-10-13T03:25:24;10.20;;;5.60;;
28170;SDS011;15458;53.346;-1.688;2023-10-13T03:27:53;12.68;;;6.45;;
28170;SDS011;15458;53.346;-1.688;2023-10-13T03:30:19;13.95;;;6.55;;
28170;SDS011;15458;53.346;-1.688;2023-10-13T03:32:55;10.50;;;6.05;;
28170;SDS011;15458;53.346;-1.688;2023-10-13T03:35:21;12.13;;;5.78;;
28170;SDS011;15458;53.346;-1.688;2023-10-13T03:37:51;10.38;;;5.57;;
28170;SDS011;15458;53.346;-1.688;2023-10-13T03:40:16;11.73;;;5.57;;
28170;SDS011;15458;53.346;-1.688;2023-10-13T03:42:48;10.98;;;5.22;;
28170;SDS011;15458;53.346;-1.688;2023-10-13T03:45:40;10.88;;;4.78;;
28170;SDS011;15458;53.346;-1.688;2023-10-13T03:50:37;10.75;;;5.70;;
28170;SDS011;15458;53.346;-1.688;2023-10-13T03:53:22;8.05;;;4.60;;
28170;SDS011;15458;53.346;-1.688;2023-10-13T03:55:50;8.80;;;4.40;;
28170;SDS011;15458;53.346;-1.688;2023-10-13T03:58:33;7.57;;;3.97;;
28170;SDS011;15458;53.346;-1.688;2023-10-13T04:01:11;8.00;;;4.10;;
28170;SDS011;15458;53.346;-1.688;2023-10-13T04:03:40;6.00;;;3.97;;
28170;SDS011;15458;53.346;-1.688;2023-10-13T04:06:24;8.00;;;4.20;;
28170;SDS011;15458;53.346;-1.688;2023-10-13T04:09:08;6.78;;;3.75;;
28170;SDS011;15458;53.346;-1.688;2023-10-13T04:12:01;6.65;;;3.67;;
28170;SDS011;15458;53.346;-1.688;2023-10-13T04:17:15;5.70;;;3.65;;
28170;SDS011;15458;53.346;-1.688;2023-10-13T04:19:47;7.32;;;3.80;;
28170;SDS011;15458;53.346;-1.688;2023-10-13T04:22:32;7.07;;;4.30;;
28170;SDS011;15458;53.346;-1.688;2023-10-13T04:25:13;9.77;;;4.32;;
28170;SDS011;15458;53.346;-1.688;2023-10-13T04:27:58;6.75;;;3.70;;
28170;SDS011;15458;53.346;-1.688;2023-10-13T04:30:39;9.68;;;3.10;;
28170;SDS011;15458;53.346;-1.688;2023-10-13T04:33:30;4.70;;;2.90;;
28170;SDS011;15458;53.346;-1.688;2023-10-13T04:38:47;6.40;;;2.90;;
28170;SDS011;15458;53.346;-1.688;2023-10-13T04:41:37;6.97;;;3.25;;
28170;SDS011;15458;53.346;-1.688;2023-10-13T04:44:06;6.10;;;3.25;;
28170;SDS011;15458;53.346;-1.688;2023-10-13T04:46:54;5.75;;;3.17;;
28170;SDS011;15458;53.346;-1.688;2023-10-13T04:49:27;5.47;;;3.50;;
28170;SDS011;15458;53.346;-1.688;2023-10-13T04:52:00;7.10;;;3.08;;
28170;SDS011;15458;53.346;-1.688;2023-10-13T04:54:33;5.40;;;2.90;;
28170;SDS011;15458;53.346;-1.688;2023-10-13T04:57:21;5.50;;;3.10;;
28170;SDS011;15458;53.346;-1.688;2023-10-13T04:59:58;3.08;;;1.70;;
28170;SDS011;15458;53.346;-1.688;2023-10-13T05:02:41;5.85;;;2.70;;
28170;SDS011;15458;53.346;-1.688;2023-10-13T05:05:20;5.32;;;2.75;;
28170;SDS011;15458;53.346;-1.688;2023-10-13T05:08:05;7.75;;;2.75;;
28170;SDS011;15458;53.346;-1.688;2023-10-13T05:10:49;3.33;;;2.00;;
28170;SDS011;15458;53.346;-1.688;2023-10-13T05:13:33;5.72;;;3.05;;
28170;SDS011;15458;53.346;-1.688;2023-10-13T05:16:18;4.97;;;2.70;;
28170;SDS011;15458;53.346;-1.688;2023-10-13T05:19:02;6.57;;;2.92;;
28170;SDS011;15458;53.346;-1.688;2023-10-13T05:21:46;6.03;;;2.88;;
28170;SDS011;15458;53.346;-1.688;2023-10-13T05:24:30;5.05;;;2.33;;
28170;SDS011;15458;53.346;-1.688;2023-10-13T05:27:14;5.30;;;3.00;;
28170;SDS011;15458;53.346;-1.688;2023-10-13T05:29:58;4.43;;;2.50;;
28170;SDS011;15458;53.346;-1.688;2023-10-13T05:32:42;5.60;;;2.30;;
28170;SDS011;15458;53.346;-1.688;2023-10-13T05:35:26;3.85;;;2.22;;
28170;SDS011;15458;53.346;-1.688;2023-10-13T05:38:10;2.75;;;1.83;;
28170;SDS011;15458;53.346;-1.688;2023-10-13T05:40:56;5.05;;;2.70;;
28170;SDS011;15458;53.346;-1.688;2023-10-13T05:43:40;6.07;;;3.30;;
28170;SDS011;15458;53.346;-1.688;2023-10-13T05:46:24;4.07;;;2.63;;
28170;SDS011;15458;53.346;-1.688;2023-10-13T05:48:50;4.38;;;2.63;;
28170;SDS011;15458;53.346;-1.688;2023-10-13T05:53:58;4.70;;;2.70;;
28170;SDS011;15458;53.346;-1.688;2023-10-13T05:59:26;5.47;;;2.90;;
28170;SDS011;15458;53.346;-1.688;2023-10-13T06:02:11;4.13;;;2.50;;
28170;SDS011;15458;53.346;-1.688;2023-10-13T06:04:56;5.70;;;2.88;;
28170;SDS011;15458;53.346;-1.688;2023-10-13T06:07:40;6.28;;;2.50;;
28170;SDS011;15458;53.346;-1.688;2023-10-13T06:10:24;3.83;;;2.15;;
28170;SDS011;15458;53.346;-1.688;2023-10-13T06:13:08;3.20;;;2.05;;
28170;SDS011;15458;53.346;-1.688;2023-10-13T06:15:52;3.33;;;2.28;;
28170;SDS011;15458;53.346;-1.688;2023-10-13T06:18:37;4.72;;;2.47;;
28170;SDS011;15458;53.346;-1.688;2023-10-13T06:21:21;6.35;;;2.08;;
28170;SDS011;15458;53.346;-1.688;2023-10-13T06:24:06;5.55;;;2.40;;
28170;SDS011;15458;53.346;-1.688;2023-10-13T06:26:51;8.73;;;2.60;;
28170;SDS011;15458;53.346;-1.688;2023-10-13T06:29:35;5.03;;;2.60;;
28170;SDS011;15458;53.346;-1.688;2023-10-13T06:32:03;4.80;;;2.95;;
28170;SDS011;15458;53.346;-1.688;2023-10-13T06:34:38;6.47;;;3.53;;
28170;SDS011;15458;53.346;-1.688;2023-10-13T06:37:10;6.80;;;3.13;;
28170;SDS011;15458;53.346;-1.688;2023-10-13T06:39:56;3.67;;;2.55;;
28170;SDS011;15458;53.346;-1.688;2023-10-13T06:42:24;4.78;;;2.90;;
28170;SDS011;15458;53.346;-1.688;2023-10-13T06:44:53;3.90;;;2.40;;
28170;SDS011;15458;53.346;-1.688;2023-10-13T06:47:20;6.82;;;3.08;;
28170;SDS011;15458;53.346;-1.688;2023-10-13T06:49:46;5.53;;;2.40;;
28170;SDS011;15458;53.346;-1.688;2023-10-13T06:52:16;4.93;;;2.47;;
28170;SDS011;15458;53.346;-1.688;2023-10-13T06:54:42;6.90;;;2.58;;
28170;SDS011;15458;53.346;-1.688;2023-10-13T06:57:08;5.50;;;2.47;;
28170;SDS011;15458;53.346;-1.688;2023-10-13T06:59:54;6.13;;;2.60;;
28170;SDS011;15458;53.346;-1.688;2023-10-13T07:02:21;3.95;;;2.63;;
28170;SDS011;15458;53.346;-1.688;2023-10-13T07:04:50;6.20;;;2.42;;
28170;SDS011;15458;53.346;-1.688;2023-10-13T07:07:21;5.57;;;3.15;;
28170;SDS011;15458;53.346;-1.688;2023-10-13T07:09:49;4.40;;;2.22;;
28170;SDS011;15458;53.346;-1.688;2023-10-13T07:12:20;2.50;;;1.60;;
28170;SDS011;15458;53.346;-1.688;2023-10-13T07:14:58;3.38;;;1.95;;
28170;SDS011;15458;53.346;-1.688;2023-10-13T07:17:44;4.53;;;2.22;;
28170;SDS011;15458;53.346;-1.688;2023-10-13T07:20:12;7.07;;;2.60;;
28170;SDS011;15458;53.346;-1.688;2023-10-13T07:22:41;4.57;;;2.47;;
28170;SDS011;15458;53.346;-1.688;2023-10-13T07:25:20;4.65;;;2.35;;
28170;SDS011;15458;53.346;-1.688;2023-10-13T07:27:51;2.85;;;1.70;;
28170;SDS011;15458;53.346;-1.688;2023-10-13T07:30:18;3.03;;;1.42;;
28170;SDS011;15458;53.346;-1.688;2023-10-13T07:32:51;3.38;;;1.83;;
28170;SDS011;15458;53.346;-1.688;2023-10-13T07:35:17;2.47;;;1.85;;
28170;SDS011;15458;53.346;-1.688;2023-10-13T07:37:45;2.80;;;1.63;;
28170;SDS011;15458;53.346;-1.688;2023-10-13T07:40:17;6.00;;;2.60;;
28170;SDS011;15458;53.346;-1.688;2023-10-13T07:42:56;4.00;;;1.80;;
28170;SDS011;15458;53.346;-1.688;2023-10-13T07:45:38;3.15;;;1.70;;
28170;SDS011;15458;53.346;-1.688;2023-10-13T07:48:10;3.53;;;1.98;;
28170;SDS011;15458;53.346;-1.688;2023-10-13T07:50:58;4.20;;;2.40;;
28170;SDS011;15458;53.346;-1.688;2023-10-13T07:53:28;6.25;;;2.63;;
28170;SDS011;15458;53.346;-1.688;2023-10-13T07:55:59;3.92;;;2.03;;
28170;SDS011;15458;53.346;-1.688;2023-10-13T07:58:30;5.72;;;1.88;;
28170;SDS011;15458;53.346;-1.688;2023-10-13T08:00:58;3.90;;;2.03;;
28170;SDS011;15458;53.346;-1.688;2023-10-13T08:03:23;3.95;;;2.00;;
28170;SDS011;15458;53.346;-1.688;2023-10-13T08:06:09;4.28;;;2.20;;
28170;SDS011;15458;53.346;-1.688;2023-10-13T08:08:38;3.42;;;1.35;;
28170;SDS011;15458;53.346;-1.688;2023-10-13T08:11:15;4.22;;;1.30;;
28170;SDS011;15458;53.346;-1.688;2023-10-13T08:13:54;1.10;;;0.82;;
28170;SDS011;15458;53.346;-1.688;2023-10-13T08:16:26;1.25;;;0.90;;
28170;SDS011;15458;53.346;-1.688;2023-10-13T08:19:15;1.02;;;0.68;;
28170;SDS011;15458;53.346;-1.688;2023-10-13T08:21:45;1.38;;;0.90;;
28170;SDS011;15458;53.346;-1.688;2023-10-13T08:24:46;1.77;;;1.13;;
28170;SDS011;15458;53.346;-1.688;2023-10-13T08:27:14;0.65;;;0.60;;
28170;SDS011;15458;53.346;-1.688;2023-10-13T08:30:00;2.38;;;1.17;;
28170;SDS011;15458;53.346;-1.688;2023-10-13T08:32:27;1.08;;;0.98;;
28170;SDS011;15458;53.346;-1.688;2023-10-13T08:34:54;1.50;;;1.00;;
28170;SDS011;15458;53.346;-1.688;2023-10-13T08:37:23;1.85;;;1.00;;
28170;SDS011;15458;53.346;-1.688;2023-10-13T08:39:52;3.58;;;1.00;;
28170;SDS011;15458;53.346;-1.688;2023-10-13T08:42:32;2.28;;;1.30;;
28170;SDS011;15458;53.346;-1.688;2023-10-13T08:45:08;2.10;;;1.13;;
28170;SDS011;15458;53.346;-1.688;2023-10-13T08:48:06;0.63;;;0.50;;
28170;SDS011;15458;53.346;-1.688;2023-10-13T08:50:44;1.25;;;0.70;;
28170;SDS011;15458;53.346;-1.688;2023-10-13T08:53:20;0.70;;;0.40;;
28170;SDS011;15458;53.346;-1.688;2023-10-13T09:01:18;1.70;;;0.77;;
28170;SDS011;15458;53.346;-1.688;2023-10-13T09:04:05;0.60;;;0.60;;
28170;SDS011;15458;53.346;-1.688;2023-10-13T09:06:44;2.33;;;0.90;;
28170;SDS011;15458;53.346;-1.688;2023-10-13T09:09:23;3.08;;;0.82;;
28170;SDS011;15458;53.346;-1.688;2023-10-13T09:11:53;1.10;;;0.60;;
28170;SDS011;15458;53.346;-1.688;2023-10-13T09:14:34;0.93;;;0.80;;
28170;SDS011;15458;53.346;-1.688;2023-10-13T09:17:07;3.65;;;1.33;;
28170;SDS011;15458;53.346;-1.688;2023-10-13T09:19:51;2.03;;;1.50;;
28170;SDS011;15458;53.346;-1.688;2023-10-13T09:22:29;4.13;;;3.03;;
28170;SDS011;15458;53.346;-1.688;2023-10-13T09:25:01;2.58;;;2.00;;
28170;SDS011;15458;53.346;-1.688;2023-10-13T09:27:30;4.50;;;2.42;;
28170;SDS011;15458;53.346;-1.688;2023-10-13T09:30:03;2.13;;;1.70;;
28170;SDS011;15458;53.346;-1.688;2023-10-13T09:33:02;1.98;;;1.30;;
28170;SDS011;15458;53.346;-1.688;2023-10-13T09:35:33;1.40;;;1.20;;
28170;SDS011;15458;53.346;-1.688;2023-10-13T09:38:02;1.23;;;1.02;;
28170;SDS011;15458;53.346;-1.688;2023-10-13T09:40:28;1.63;;;0.93;;
28170;SDS011;15458;53.346;-1.688;2023-10-13T09:42:58;4.43;;;1.63;;
28170;SDS011;15458;53.346;-1.688;2023-10-13T09:45:33;1.73;;;1.20;;
28170;SDS011;15458;53.346;-1.688;2023-10-13T09:48:10;2.65;;;1.60;;
28170;SDS011;15458;53.346;-1.688;2023-10-13T09:50:46;2.88;;;2.03;;
28170;SDS011;15458;53.346;-1.688;2023-10-13T09:53:13;3.90;;;2.70;;
28170;SDS011;15458;53.346;-1.688;2023-10-13T09:55:47;4.32;;;2.53;;
28170;SDS011;15458;53.346;-1.688;2023-10-13T09:58:15;5.10;;;2.67;;
28170;SDS011;15458;53.346;-1.688;2023-10-13T10:00:43;3.00;;;2.15;;
28170;SDS011;15458;53.346;-1.688;2023-10-13T10:03:45;2.97;;;1.92;;
28170;SDS011;15458;53.346;-1.688;2023-10-13T10:06:32;2.42;;;1.60;;
28170;SDS011;15458;53.346;-1.688;2023-10-13T10:09:07;3.03;;;1.88;;
28170;SDS011;15458;53.346;-1.688;2023-10-13T10:11:48;2.08;;;1.67;;
28170;SDS011;15458;53.346;-1.688;2023-10-13T10:17:53;1.75;;;1.52;;
28170;SDS011;15458;53.346;-1.688;2023-10-13T10:20:27;1.90;;;1.27;;
28170;SDS011;15458;53.346;-1.688;2023-10-13T10:23:04;2.17;;;0.90;;
28170;SDS011;15458;53.346;-1.688;2023-10-13T10:25:34;0.93;;;0.85;;
28170;SDS011;15458;53.346;-1.688;2023-10-13T10:28:04;1.30;;;0.95;;
28170;SDS011;15458;53.346;-1.688;2023-10-13T10:33:00;1.83;;;1.48;;
28170;SDS011;15458;53.346;-1.688;2023-10-13T10:35:32;2.03;;;1.70;;
28170;SDS011;15458;53.346;-1.688;2023-10-13T10:38:09;2.47;;;1.70;;
28170;SDS011;15458;53.346;-1.688;2023-10-13T10:40:51;2.05;;;1.10;;
28170;SDS011;15458;53.346;-1.688;2023-10-13T10:43:28;2.47;;;1.20;;
28170;SDS011;15458;53.346;-1.688;2023-10-13T10:46:12;1.15;;;0.60;;
28170;SDS011;15458;53.346;-1.688;2023-10-13T10:48:53;1.60;;;0.68;;
28170;SDS011;15458;53.346;-1.688;2023-10-13T10:51:26;0.50;;;0.40;;
28170;SDS011;15458;53.346;-1.688;2023-10-13T10:53:56;1.27;;;0.57;;
28170;SDS011;15458;53.346;-1.688;2023-10-13T10:56:23;1.10;;;0.90;;
28170;SDS011;15458;53.346;-1.688;2023-10-13T10:59:03;0.65;;;0.57;;
28170;SDS011;15458;53.346;-1.688;2023-10-13T11:01:31;4.22;;;0.63;;
28170;SDS011;15458;53.346;-1.688;2023-10-13T11:04:04;1.83;;;0.65;;
28170;SDS011;15458;53.346;-1.688;2023-10-13T11:06:36;0.40;;;0.40;;
28170;SDS011;15458;53.346;-1.688;2023-10-13T11:09:11;0.50;;;0.50;;
28170;SDS011;15458;53.346;-1.688;2023-10-13T11:14:39;2.20;;;0.70;;
28170;SDS011;15458;53.346;-1.688;2023-10-13T11:17:04;1.85;;;0.45;;
28170;SDS011;15458;53.346;-1.688;2023-10-13T11:19:39;0.30;;;0.30;;
28170;SDS011;15458;53.346;-1.688;2023-10-13T11:22:09;0.50;;;0.40;;
28170;SDS011;15458;53.346;-1.688;2023-10-13T11:25:04;1.27;;;0.70;;
28170;SDS011;15458;53.346;-1.688;2023-10-13T11:27:34;1.67;;;1.00;;
28170;SDS011;15458;53.346;-1.688;2023-10-13T11:30:19;1.35;;;1.02;;
28170;SDS011;15458;53.346;-1.688;2023-10-13T11:33:30;1.00;;;0.77;;
28170;SDS011;15458;53.346;-1.688;2023-10-13T11:35:37;1.42;;;1.00;;
28170;SDS011;15458;53.346;-1.688;2023-10-13T11:43:30;2.20;;;1.00;;
28170;SDS011;15458;53.346;-1.688;2023-10-13T11:46:14;1.70;;;1.20;;
28170;SDS011;15458;53.346;-1.688;2023-10-13T11:48:42;2.05;;;1.38;;
28170;SDS011;15458;53.346;-1.688;2023-10-13T11:51:10;1.95;;;1.45;;
28170;SDS011;15458;53.346;-1.688;2023-10-13T11:53:57;1.92;;;1.30;;
28170;SDS011;15458;53.346;-1.688;2023-10-13T11:56:23;1.40;;;1.30;;
28170;SDS011;15458;53.346;-1.688;2023-10-13T11:58:49;1.83;;;0.82;;
28170;SDS011;15458;53.346;-1.688;2023-10-13T12:01:15;1.13;;;1.02;;
28170;SDS011;15458;53.346;-1.688;2023-10-13T12:03:46;1.43;;;0.70;;
28170;SDS011;15458;53.346;-1.688;2023-10-13T12:06:32;1.13;;;0.70;;
28170;SDS011;15458;53.346;-1.688;2023-10-13T12:09:08;1.60;;;0.40;;
28170;SDS011;15458;53.346;-1.688;2023-10-13T12:11:44;0.28;;;0.28;;
28170;SDS011;15458;53.346;-1.688;2023-10-13T12:14:14;0.60;;;0.30;;
28170;SDS011;15458;53.346;-1.688;2023-10-13T12:16:58;0.63;;;0.22;;
28170;SDS011;15458;53.346;-1.688;2023-10-13T12:19:29;0.70;;;0.40;;
28170;SDS011;15458;53.346;-1.688;2023-10-13T12:21:55;0.40;;;0.20;;
28170;SDS011;15458;53.346;-1.688;2023-10-13T12:24:22;0.38;;;0.30;;
28170;SDS011;15458;53.346;-1.688;2023-10-13T12:27:05;0.70;;;0.43;;
28170;SDS011;15458;53.346;-1.688;2023-10-13T12:29:47;1.10;;;0.40;;
28170;SDS011;15458;53.346;-1.688;2023-10-13T12:32:14;0.37;;;0.20;;
28170;SDS011;15458;53.346;-1.688;2023-10-13T12:34:45;0.45;;;0.40;;
28170;SDS011;15458;53.346;-1.688;2023-10-13T12:37:29;0.35;;;0.30;;
28170;SDS011;15458;53.346;-1.688;2023-10-13T12:40:08;1.17;;;0.60;;
28170;SDS011;15458;53.346;-1.688;2023-10-13T12:42:53;3.10;;;0.50;;
28170;SDS011;15458;53.346;-1.688;2023-10-13T12:45:44;1.17;;;0.80;;
28170;SDS011;15458;53.346;-1.688;2023-10-13T12:48:30;1.05;;;0.68;;
28170;SDS011;15458;53.346;-1.688;2023-10-13T12:51:15;5.55;;;0.80;;
28170;SDS011;15458;53.346;-1.688;2023-10-13T12:53:54;3.53;;;0.80;;
28170;SDS011;15458;53.346;-1.688;2023-10-13T12:56:22;3.88;;;0.77;;
28170;SDS011;15458;53.346;-1.688;2023-10-13T12:58:53;1.73;;;0.65;;
28170;SDS011;15458;53.346;-1.688;2023-10-13T13:03:48;1.75;;;0.50;;
28170;SDS011;15458;53.346;-1.688;2023-10-13T13:06:16;3.47;;;0.50;;
28170;SDS011;15458;53.346;-1.688;2023-10-13T13:08:43;2.72;;;0.47;;
28170;SDS011;15458;53.346;-1.688;2023-10-13T13:11:09;3.35;;;0.95;;
28170;SDS011;15458;53.346;-1.688;2023-10-13T13:13:36;3.42;;;0.60;;
28170;SDS011;15458;53.346;-1.688;2023-10-13T13:16:02;1.92;;;0.65;;
28170;SDS011;15458;53.346;-1.688;2023-10-13T13:18:29;2.38;;;0.60;;
28170;SDS011;15458;53.346;-1.688;2023-10-13T13:20:54;2.90;;;0.50;;
28170;SDS011;15458;53.346;-1.688;2023-10-13T13:23:21;1.55;;;0.80;;
28170;SDS011;15458;53.346;-1.688;2023-10-13T13:25:51;2.30;;;0.70;;
28170;SDS011;15458;53.346;-1.688;2023-10-13T13:28:17;1.50;;;1.17;;
28170;SDS011;15458;53.346;-1.688;2023-10-13T13:30:43;6.20;;;2.08;;
28170;SDS011;15458;53.346;-1.688;2023-10-13T13:33:09;1.63;;;0.90;;
28170;SDS011;15458;53.346;-1.688;2023-10-13T13:35:41;3.72;;;1.20;;
28170;SDS011;15458;53.346;-1.688;2023-10-13T13:38:09;4.20;;;0.60;;
28170;SDS011;15458;53.346;-1.688;2023-10-13T13:40:38;4.00;;;0.65;;
28170;SDS011;15458;53.346;-1.688;2023-10-13T13:43:05;4.38;;;0.80;;
28170;SDS011;15458;53.346;-1.688;2023-10-13T13:45:44;2.63;;;1.00;;
28170;SDS011;15458;53.346;-1.688;2023-10-13T13:48:10;3.42;;;1.30;;
28170;SDS011;15458;53.346;-1.688;2023-10-13T13:50:40;6.95;;;1.00;;
28170;SDS011;15458;53.346;-1.688;2023-10-13T13:53:06;4.47;;;1.20;;
28170;SDS011;15458;53.346;-1.688;2023-10-13T13:55:35;5.32;;;1.35;;
28170;SDS011;15458;53.346;-1.688;2023-10-13T13:58:00;4.03;;;1.30;;
28170;SDS011;15458;53.346;-1.688;2023-10-13T14:00:29;6.03;;;1.40;;
28170;SDS011;15458;53.346;-1.688;2023-10-13T14:03:11;3.33;;;1.50;;
28170;SDS011;15458;53.346;-1.688;2023-10-13T14:06:09;4.90;;;1.52;;
28170;SDS011;15458;53.346;-1.688;2023-10-13T14:08:41;3.17;;;1.17;;
28170;SDS011;15458;53.346;-1.688;2023-10-13T14:11:09;5.30;;;1.20;;
28170;SDS011;15458;53.346;-1.688;2023-10-13T14:13:38;2.67;;;1.52;;
28170;SDS011;15458;53.346;-1.688;2023-10-13T14:16:14;1.90;;;0.75;;
28170;SDS011;15458;53.346;-1.688;2023-10-13T14:18:45;4.00;;;1.00;;
28170;SDS011;15458;53.346;-1.688;2023-10-13T14:21:12;3.55;;;0.65;;
28170;SDS011;15458;53.346;-1.688;2023-10-13T14:23:45;1.83;;;0.73;;
28170;SDS011;15458;53.346;-1.688;2023-10-13T14:26:12;10.52;;;1.20;;
28170;SDS011;15458;53.346;-1.688;2023-10-13T14:28:38;6.28;;;1.67;;
28170;SDS011;15458;53.346;-1.688;2023-10-13T14:31:15;7.95;;;1.35;;
28170;SDS011;15458;53.346;-1.688;2023-10-13T14:33:41;6.82;;;1.38;;
28170;SDS011;15458;53.346;-1.688;2023-10-13T14:36:09;7.93;;;1.80;;
28170;SDS011;15458;53.346;-1.688;2023-10-13T14:38:35;9.90;;;1.63;;
28170;SDS011;15458;53.346;-1.688;2023-10-13T14:41:01;7.53;;;1.15;;
28170;SDS011;15458;53.346;-1.688;2023-10-13T14:43:26;2.75;;;0.75;;
28170;SDS011;15458;53.346;-1.688;2023-10-13T14:45:55;12.73;;;1.73;;
28170;SDS011;15458;53.346;-1.688;2023-10-13T14:48:21;12.88;;;2.13;;
28170;SDS011;15458;53.346;-1.688;2023-10-13T14:50:49;13.73;;;2.67;;
28170;SDS011;15458;53.346;-1.688;2023-10-13T14:53:15;11.30;;;2.70;;
28170;SDS011;15458;53.346;-1.688;2023-10-13T14:55:44;6.60;;;1.60;;
28170;SDS011;15458;53.346;-1.688;2023-10-13T14:58:10;12.98;;;1.85;;
28170;SDS011;15458;53.346;-1.688;2023-10-13T15:00:41;7.78;;;1.77;;
28170;SDS011;15458;53.346;-1.688;2023-10-13T15:03:10;7.95;;;1.80;;
28170;SDS011;15458;53.346;-1.688;2023-10-13T15:05:40;11.38;;;2.08;;
28170;SDS011;15458;53.346;-1.688;2023-10-13T15:08:09;13.45;;;1.70;;
28170;SDS011;15458;53.346;-1.688;2023-10-13T15:10:34;13.63;;;2.05;;
28170;SDS011;15458;53.346;-1.688;2023-10-13T15:13:02;13.65;;;1.92;;
28170;SDS011;15458;53.346;-1.688;2023-10-13T15:15:30;12.05;;;1.77;;
28170;SDS011;15458;53.346;-1.688;2023-10-13T15:17:57;17.38;;;2.15;;
28170;SDS011;15458;53.346;-1.688;2023-10-13T15:20:23;13.30;;;2.33;;
28170;SDS011;15458;53.346;-1.688;2023-10-13T15:22:49;14.85;;;2.88;;
28170;SDS011;15458;53.346;-1.688;2023-10-13T15:25:15;19.33;;;2.67;;
28170;SDS011;15458;53.346;-1.688;2023-10-13T15:27:53;17.67;;;2.65;;
28170;SDS011;15458;53.346;-1.688;2023-10-13T15:30:22;17.88;;;2.90;;
28170;SDS011;15458;53.346;-1.688;2023-10-13T15:32:51;14.57;;;1.92;;
28170;SDS011;15458;53.346;-1.688;2023-10-13T15:35:18;13.10;;;2.17;;
28170;SDS011;15458;53.346;-1.688;2023-10-13T15:37:44;11.45;;;2.42;;
28170;SDS011;15458;53.346;-1.688;2023-10-13T15:40:13;11.30;;;1.92;;
28170;SDS011;15458;53.346;-1.688;2023-10-13T15:42:41;10.43;;;2.28;;
28170;SDS011;15458;53.346;-1.688;2023-10-13T15:45:09;17.48;;;2.78;;